sensor_id;sensor_type;location;lat;lon;timestamp;pressure;altitude;pressure_sealevel;temperature;humidity
73267;BME280;61495;53.400;7.608;2023-05-06T00:01:33;101639.50;;;10.78;86.40
73267;BME280;61495;53.400;7.608;2023-05-06T00:03:58;101649.22;;;10.79;84.27
73267;BME280;61495;53.400;7.608;2023-05-06T00:06:24;101645.72;;;10.79;84.60
73267;BME280;61495;53.400;7.608;2023-05-06T00:08:49;101654.78;;;10.78;85.70
73267;BME280;61495;53.400;7.608;2023-05-06T00:11:15;101652.50;;;10.75;84.43
73267;BME280;61495;53.400;7.608;2023-05-06T00:13:40;101654.97;;;10.76;86.11
73267;BME280;61495;53.400;7.608;2023-05-06T00:16:06;101655.97;;;10.75;85.42
73267;BME280;61495;53.400;7.608;2023-05-06T00:18:31;101662.16;;;10.76;85.21
73267;BME280;61495;53.400;7.608;2023-05-06T00:20:57;101664.69;;;10.77;85.13
73267;BME280;61495;53.400;7.608;2023-05-06T00:23:22;101658.47;;;10.77;86.10
73267;BME280;61495;53.400;7.608;2023-05-06T00:25:47;101660.16;;;10.78;85.68
73267;BME280;61495;53.400;7.608;2023-05-06T00:28:13;101644.44;;;10.75;85.74
73267;BME280;61495;53.400;7.608;2023-05-06T00:30:38;101656.81;;;10.76;85.69
73267;BME280;61495;53.400;7.608;2023-05-06T00:33:04;101647.13;;;10.75;86.10
73267;BME280;61495;53.400;7.608;2023-05-06T00:35:32;101658.03;;;10.73;84.96
73267;BME280;61495;53.400;7.608;2023-05-06T00:38:12;101656.81;;;10.76;85.34
73267;BME280;61495;53.400;7.608;2023-05-06T00:40:38;101640.94;;;10.74;85.29
73267;BME280;61495;53.400;7.608;2023-05-06T00:43:04;101641.09;;;10.73;86.76
73267;BME280;61495;53.400;7.608;2023-05-06T00:45:29;101639.25;;;10.73;86.09
73267;BME280;61495;53.400;7.608;2023-05-06T00:47:56;101643.78;;;10.73;86.97
73267;BME280;61495;53.400;7.608;2023-05-06T00:50:21;101644.81;;;10.72;87.08
73267;BME280;61495;53.400;7.608;2023-05-06T00:52:48;101644.81;;;10.72;86.47
73267;BME280;61495;53.400;7.608;2023-05-06T00:55:13;101636.94;;;10.70;86.31
73267;BME280;61495;53.400;7.608;2023-05-06T00:57:41;101634.84;;;10.66;85.55
73267;BME280;61495;53.400;7.608;2023-05-06T01:00:07;101639.00;;;10.68;85.66
73267;BME280;61495;53.400;7.608;2023-05-06T01:02:32;101643.53;;;10.68;86.62
73267;BME280;61495;53.400;7.608;2023-05-06T01:05:03;101649.06;;;10.66;86.38
73267;BME280;61495;53.400;7.608;2023-05-06T01:07:39;101645.19;;;10.69;86.13
73267;BME280;61495;53.400;7.608;2023-05-06T01:13:11;101637.31;;;10.67;86.06
73267;BME280;61495;53.400;7.608;2023-05-06T01:15:43;101634.84;;;10.66;86.27
73267;BME280;61495;53.400;7.608;2023-05-06T01:18:10;101638.34;;;10.66;86.09
73267;BME280;61495;53.400;7.608;2023-05-06T01:20:38;101642.06;;;10.65;85.85
73267;BME280;61495;53.400;7.608;2023-05-06T01:23:10;101636.22;;;10.62;86.27
73267;BME280;61495;53.400;7.608;2023-05-06T01:25:36;101633.56;;;10.62;86.64
73267;BME280;61495;53.400;7.608;2023-05-06T01:28:02;101633.09;;;10.58;85.79
73267;BME280;61495;53.400;7.608;2023-05-06T01:30:31;101642.22;;;10.64;87.65
73267;BME280;61495;53.400;7.608;2023-05-06T01:33:08;101642.22;;;10.64;86.09
73267;BME280;61495;53.400;7.608;2023-05-06T01:35:49;101644.28;;;10.62;87.81
73267;BME280;61495;53.400;7.608;2023-05-06T01:38:41;101646.13;;;10.61;87.32
73267;BME280;61495;53.400;7.608;2023-05-06T01:41:26;101651.69;;;10.59;86.81
73267;BME280;61495;53.400;7.608;2023-05-06T01:44:14;101646.69;;;10.56;88.20
73267;BME280;61495;53.400;7.608;2023-05-06T01:47:01;101642.91;;;10.51;86.17
73267;BME280;61495;53.400;7.608;2023-05-06T01:49:49;101641.25;;;10.50;87.06
73267;BME280;61495;53.400;7.608;2023-05-06T01:52:29;101647.22;;;10.52;86.39
73267;BME280;61495;53.400;7.608;2023-05-06T01:55:15;101652.41;;;10.53;87.42
73267;BME280;61495;53.400;7.608;2023-05-06T01:57:42;101646.78;;;10.48;87.16
73267;BME280;61495;53.400;7.608;2023-05-06T02:00:08;101651.50;;;10.46;86.56
73267;BME280;61495;53.400;7.608;2023-05-06T02:02:33;101653.53;;;10.44;86.59
73267;BME280;61495;53.400;7.608;2023-05-06T02:04:59;101646.13;;;10.46;86.41
73267;BME280;61495;53.400;7.608;2023-05-06T02:07:24;101655.38;;;10.44;86.46
73267;BME280;61495;53.400;7.608;2023-05-06T02:09:50;101651.88;;;10.43;86.73
73267;BME280;61495;53.400;7.608;2023-05-06T02:12:15;101634.50;;;10.39;87.70
73267;BME280;61495;53.400;7.608;2023-05-06T02:14:40;101652.22;;;10.40;86.38
73267;BME280;61495;53.400;7.608;2023-05-06T02:17:06;101650.56;;;10.39;86.34
73267;BME280;61495;53.400;7.608;2023-05-06T02:19:31;101641.06;;;10.37;86.52
73267;BME280;61495;53.400;7.608;2023-05-06T02:21:56;101650.94;;;10.36;86.72
73267;BME280;61495;53.400;7.608;2023-05-06T02:24:22;101647.63;;;10.34;86.86
73267;BME280;61495;53.400;7.608;2023-05-06T02:26:47;101650.50;;;10.33;86.56
73267;BME280;61495;53.400;7.608;2023-05-06T02:29:13;101636.81;;;10.28;86.30
73267;BME280;61495;53.400;7.608;2023-05-06T02:31:38;101643.66;;;10.30;86.17
73267;BME280;61495;53.400;7.608;2023-05-06T02:34:14;101644.66;;;10.29;87.03
73267;BME280;61495;53.400;7.608;2023-05-06T02:36:40;101653.34;;;10.31;87.07
73267;BME280;61495;53.400;7.608;2023-05-06T02:39:05;101644.66;;;10.29;86.65
73267;BME280;61495;53.400;7.608;2023-05-06T02:41:31;101642.53;;;10.25;87.56
73267;BME280;61495;53.400;7.608;2023-05-06T02:43:56;101642.38;;;10.26;87.23
73267;BME280;61495;53.400;7.608;2023-05-06T02:46:21;101640.31;;;10.28;88.29
73267;BME280;61495;53.400;7.608;2023-05-06T02:48:47;101635.53;;;10.24;89.81
73267;BME280;61495;53.400;7.608;2023-05-06T02:51:12;101646.72;;;10.27;87.06
73267;BME280;61495;53.400;7.608;2023-05-06T02:53:38;101635.16;;;10.27;87.27
73267;BME280;61495;53.400;7.608;2023-05-06T02:56:03;101639.06;;;10.24;89.87
73267;BME280;61495;53.400;7.608;2023-05-06T02:58:28;101641.06;;;10.22;90.64
73267;BME280;61495;53.400;7.608;2023-05-06T03:00:54;101638.38;;;10.22;87.52
73267;BME280;61495;53.400;7.608;2023-05-06T03:03:25;101649.75;;;10.24;88.07
73267;BME280;61495;53.400;7.608;2023-05-06T03:05:50;101641.06;;;10.22;87.37
73267;BME280;61495;53.400;7.608;2023-05-06T03:08:15;101648.09;;;10.23;88.24
73267;BME280;61495;53.400;7.608;2023-05-06T03:10:41;101654.09;;;10.25;89.16
73267;BME280;61495;53.400;7.608;2023-05-06T03:13:06;101661.47;;;10.23;89.65
73267;BME280;61495;53.400;7.608;2023-05-06T03:15:31;101650.13;;;10.21;89.73
73267;BME280;61495;53.400;7.608;2023-05-06T03:17:57;101646.16;;;10.17;89.74
73267;BME280;61495;53.400;7.608;2023-05-06T03:20:22;101653.81;;;10.20;89.74
73267;BME280;61495;53.400;7.608;2023-05-06T03:22:47;101646.16;;;10.17;87.71
73267;BME280;61495;53.400;7.608;2023-05-06T03:25:14;101651.97;;;10.21;87.71
73267;BME280;61495;53.400;7.608;2023-05-06T03:27:39;101649.47;;;10.19;89.94
73267;BME280;61495;53.400;7.608;2023-05-06T03:30:05;101649.66;;;10.18;87.96
73267;BME280;61495;53.400;7.608;2023-05-06T03:32:31;101651.31;;;10.19;88.89
73267;BME280;61495;53.400;7.608;2023-05-06T03:34:56;101653.81;;;10.20;89.31
73267;BME280;61495;53.400;7.608;2023-05-06T03:37:21;101647.81;;;10.18;90.23
73267;BME280;61495;53.400;7.608;2023-05-06T03:39:47;101634.22;;;10.20;89.68
73267;BME280;61495;53.400;7.608;2023-05-06T03:42:12;101625.56;;;10.18;90.33
73267;BME280;61495;53.400;7.608;2023-05-06T03:44:38;101637.09;;;10.18;89.53
73267;BME280;61495;53.400;7.608;2023-05-06T03:47:03;101619.88;;;10.13;91.18
73267;BME280;61495;53.400;7.608;2023-05-06T03:49:28;101633.59;;;10.18;89.42
73267;BME280;61495;53.400;7.608;2023-05-06T03:51:54;101632.56;;;10.19;89.15
73267;BME280;61495;53.400;7.608;2023-05-06T03:54:20;101631.75;;;10.18;89.83
73267;BME280;61495;53.400;7.608;2023-05-06T03:56:46;101629.44;;;10.15;90.42
73267;BME280;61495;53.400;7.608;2023-05-06T03:59:11;101625.09;;;10.14;90.62
73267;BME280;61495;53.400;7.608;2023-05-06T04:01:37;101633.75;;;10.16;90.51
73267;BME280;61495;53.400;7.608;2023-05-06T04:04:07;101636.44;;;10.16;89.91
73267;BME280;61495;53.400;7.608;2023-05-06T04:06:32;101633.75;;;10.16;88.22
73267;BME280;61495;53.400;7.608;2023-05-06T04:08:57;101633.47;;;10.11;88.34
73267;BME280;61495;53.400;7.608;2023-05-06T04:11:23;101640.31;;;10.14;88.38
73267;BME280;61495;53.400;7.608;2023-05-06T04:13:49;101633.19;;;10.06;90.93
73267;BME280;61495;53.400;7.608;2023-05-06T04:16:14;101643.16;;;10.12;89.73
73267;BME280;61495;53.400;7.608;2023-05-06T04:18:39;101638.56;;;10.06;88.63
73267;BME280;61495;53.400;7.608;2023-05-06T04:21:05;101641.88;;;10.08;88.28
73267;BME280;61495;53.400;7.608;2023-05-06T04:23:31;101640.38;;;10.05;89.17
73267;BME280;61495;53.400;7.608;2023-05-06T04:25:56;101648.78;;;10.02;89.71
73267;BME280;61495;53.400;7.608;2023-05-06T04:28:22;101653.94;;;10.04;89.63
73267;BME280;61495;53.400;7.608;2023-05-06T04:30:47;101643.31;;;9.96;89.63
73267;BME280;61495;53.400;7.608;2023-05-06T04:33:13;101648.94;;;10.01;88.41
73267;BME280;61495;53.400;7.608;2023-05-06T04:35:38;101645.00;;;9.97;92.09
73267;BME280;61495;53.400;7.608;2023-05-06T04:38:04;101659.22;;;9.97;90.75
73267;BME280;61495;53.400;7.608;2023-05-06T04:40:30;101661.44;;;9.94;90.44
73267;BME280;61495;53.400;7.608;2023-05-06T04:42:55;101651.91;;;9.91;91.57
73267;BME280;61495;53.400;7.608;2023-05-06T04:45:21;101655.22;;;9.93;90.78
73267;BME280;61495;53.400;7.608;2023-05-06T04:47:47;101651.09;;;9.91;91.30
73267;BME280;61495;53.400;7.608;2023-05-06T04:50:12;101661.31;;;9.87;93.27
73267;BME280;61495;53.400;7.608;2023-05-06T04:52:38;101675.81;;;9.93;92.33
73267;BME280;61495;53.400;7.608;2023-05-06T04:55:03;101672.13;;;9.94;90.46
73267;BME280;61495;53.400;7.608;2023-05-06T04:57:30;101677.13;;;9.97;90.76
73267;BME280;61495;53.400;7.608;2023-05-06T04:59:56;101681.16;;;9.93;92.49
73267;BME280;61495;53.400;7.608;2023-05-06T05:02:21;101691.16;;;9.99;91.15
73267;BME280;61495;53.400;7.608;2023-05-06T05:04:50;101700.66;;;10.01;92.00
73267;BME280;61495;53.400;7.608;2023-05-06T05:07:15;101691.78;;;10.01;91.12
73267;BME280;61495;53.400;7.608;2023-05-06T05:09:41;101697.81;;;10.03;92.48
73267;BME280;61495;53.400;7.608;2023-05-06T05:12:06;101701.97;;;10.05;91.08
73267;BME280;61495;53.400;7.608;2023-05-06T05:14:32;101701.59;;;10.09;92.00
73267;BME280;61495;53.400;7.608;2023-05-06T05:16:57;101697.09;;;10.09;92.67
73267;BME280;61495;53.400;7.608;2023-05-06T05:19:22;101702.44;;;10.09;91.63
73267;BME280;61495;53.400;7.608;2023-05-06T05:21:48;101694.41;;;10.09;92.44
73267;BME280;61495;53.400;7.608;2023-05-06T05:24:14;101688.53;;;10.14;91.50
73267;BME280;61495;53.400;7.608;2023-05-06T05:26:40;101688.53;;;10.14;91.81
73267;BME280;61495;53.400;7.608;2023-05-06T05:29:05;101687.31;;;10.16;92.42
73267;BME280;61495;53.400;7.608;2023-05-06T05:31:31;101690.66;;;10.18;92.85
73267;BME280;61495;53.400;7.608;2023-05-06T05:33:56;101686.59;;;10.22;92.29
73267;BME280;61495;53.400;7.608;2023-05-06T05:36:22;101679.59;;;10.21;92.71
73267;BME280;61495;53.400;7.608;2023-05-06T05:38:48;101689.56;;;10.27;92.43
73267;BME280;61495;53.400;7.608;2023-05-06T05:41:14;101693.53;;;10.31;91.76
73267;BME280;61495;53.400;7.608;2023-05-06T05:43:39;101697.88;;;10.32;93.39
73267;BME280;61495;53.400;7.608;2023-05-06T05:46:05;101708.84;;;10.37;90.81
73267;BME280;61495;53.400;7.608;2023-05-06T05:48:30;101704.97;;;10.40;92.00
73267;BME280;61495;53.400;7.608;2023-05-06T05:50:57;101701.75;;;10.44;92.45
73267;BME280;61495;53.400;7.608;2023-05-06T05:53:22;101702.66;;;10.51;93.60
73267;BME280;61495;53.400;7.608;2023-05-06T05:55:48;101690.94;;;10.52;93.74
73267;BME280;61495;53.400;7.608;2023-05-06T05:58:13;101697.88;;;10.62;94.88
73267;BME280;61495;53.400;7.608;2023-05-06T06:00:39;101699.16;;;10.66;93.79
73267;BME280;61495;53.400;7.608;2023-05-06T06:03:04;101705.78;;;10.70;95.87
73267;BME280;61495;53.400;7.608;2023-05-06T06:05:39;101709.56;;;10.75;95.24
73267;BME280;61495;53.400;7.608;2023-05-06T06:08:05;101712.56;;;10.80;95.41
73267;BME280;61495;53.400;7.608;2023-05-06T06:10:30;101710.59;;;10.89;94.43
73267;BME280;61495;53.400;7.608;2023-05-06T06:12:56;101711.88;;;10.93;93.93
73267;BME280;61495;53.400;7.608;2023-05-06T06:15:21;101713.78;;;10.99;94.90
73267;BME280;61495;53.400;7.608;2023-05-06T06:17:47;101718.78;;;11.02;95.03
73267;BME280;61495;53.400;7.608;2023-05-06T06:20:13;101719.06;;;11.07;95.24
73267;BME280;61495;53.400;7.608;2023-05-06T06:22:38;101722.00;;;11.12;95.62
73267;BME280;61495;53.400;7.608;2023-05-06T06:25:04;101722.38;;;11.09;96.08
73267;BME280;61495;53.400;7.608;2023-05-06T06:27:33;101725.69;;;11.11;94.92
73267;BME280;61495;53.400;7.608;2023-05-06T06:29:59;101728.00;;;11.14;96.12
73267;BME280;61495;53.400;7.608;2023-05-06T06:32:24;101722.94;;;11.19;95.73
73267;BME280;61495;53.400;7.608;2023-05-06T06:34:50;101726.69;;;11.25;95.11
73267;BME280;61495;53.400;7.608;2023-05-06T06:37:15;101733.31;;;11.29;94.67
73267;BME280;61495;53.400;7.608;2023-05-06T06:39:40;101730.28;;;11.32;94.29
73267;BME280;61495;53.400;7.608;2023-05-06T06:42:05;101736.72;;;11.37;94.72
73267;BME280;61495;53.400;7.608;2023-05-06T06:44:34;101738.66;;;11.43;96.18
73267;BME280;61495;53.400;7.608;2023-05-06T06:46:59;101736.81;;;11.44;94.77
73267;BME280;61495;53.400;7.608;2023-05-06T06:49:25;101732.28;;;11.44;95.30
73267;BME280;61495;53.400;7.608;2023-05-06T06:51:51;101729.84;;;11.49;94.41
73267;BME280;61495;53.400;7.608;2023-05-06T06:54:16;101742.13;;;11.58;94.04
73267;BME280;61495;53.400;7.608;2023-05-06T06:56:42;101750.81;;;11.60;95.83
73267;BME280;61495;53.400;7.608;2023-05-06T06:59:07;101740.47;;;11.57;94.56
73267;BME280;61495;53.400;7.608;2023-05-06T07:01:32;101747.16;;;11.68;94.47
73267;BME280;61495;53.400;7.608;2023-05-06T07:04:07;101742.53;;;11.77;93.79
73267;BME280;61495;53.400;7.608;2023-05-06T07:06:32;101744.66;;;11.81;93.60
73267;BME280;61495;53.400;7.608;2023-05-06T07:08:57;101746.38;;;11.89;93.90
73267;BME280;61495;53.400;7.608;2023-05-06T07:11:23;101753.09;;;11.99;94.68
73267;BME280;61495;53.400;7.608;2023-05-06T07:13:48;101752.69;;;12.02;94.30
73267;BME280;61495;53.400;7.608;2023-05-06T07:16:14;101759.16;;;12.08;94.72
73267;BME280;61495;53.400;7.608;2023-05-06T07:18:39;101761.06;;;12.14;95.31
73267;BME280;61495;53.400;7.608;2023-05-06T07:21:04;101768.19;;;12.28;94.16
73267;BME280;61495;53.400;7.608;2023-05-06T07:23:30;101762.59;;;12.23;95.01
73267;BME280;61495;53.400;7.608;2023-05-06T07:25:57;101770.03;;;12.55;93.89
73267;BME280;61495;53.400;7.608;2023-05-06T07:28:22;101759.84;;;12.78;93.95
73267;BME280;61495;53.400;7.608;2023-05-06T07:30:47;101771.56;;;13.05;94.07
73267;BME280;61495;53.400;7.608;2023-05-06T07:33:15;101762.09;;;13.16;92.50
73267;BME280;61495;53.400;7.608;2023-05-06T07:35:52;101770.47;;;13.34;91.56
73267;BME280;61495;53.400;7.608;2023-05-06T07:38:22;101774.31;;;13.12;91.71
73267;BME280;61495;53.400;7.608;2023-05-06T07:40:48;101778.19;;;13.03;92.20
73267;BME280;61495;53.400;7.608;2023-05-06T07:43:14;101772.31;;;12.93;92.39
73267;BME280;61495;53.400;7.608;2023-05-06T07:45:39;101775.63;;;12.95;92.50
73267;BME280;61495;53.400;7.608;2023-05-06T07:48:05;101775.25;;;12.98;92.85
73267;BME280;61495;53.400;7.608;2023-05-06T07:50:30;101781.59;;;13.18;92.17
73267;BME280;61495;53.400;7.608;2023-05-06T07:52:56;101773.16;;;13.34;91.81
73267;BME280;61495;53.400;7.608;2023-05-06T07:55:22;101777.31;;;13.43;90.75
73267;BME280;61495;53.400;7.608;2023-05-06T07:57:48;101775.50;;;13.63;90.68
73267;BME280;61495;53.400;7.608;2023-05-06T08:00:14;101786.72;;;13.73;91.53
73267;BME280;61495;53.400;7.608;2023-05-06T08:02:39;101785.31;;;13.77;91.30
73267;BME280;61495;53.400;7.608;2023-05-06T08:05:09;101790.47;;;13.79;90.39
73267;BME280;61495;53.400;7.608;2023-05-06T08:07:36;101782.78;;;13.63;89.95
73267;BME280;61495;53.400;7.608;2023-05-06T08:10:02;101787.75;;;13.59;89.82
73267;BME280;61495;53.400;7.608;2023-05-06T08:12:27;101790.19;;;13.54;89.93
73267;BME280;61495;53.400;7.608;2023-05-06T08:14:52;101783.97;;;13.47;90.79
73267;BME280;61495;53.400;7.608;2023-05-06T08:17:19;101798.06;;;13.49;90.47
73267;BME280;61495;53.400;7.608;2023-05-06T08:19:44;101799.72;;;13.50;91.19
73267;BME280;61495;53.400;7.608;2023-05-06T08:22:10;101816.91;;;13.49;91.22
73267;BME280;61495;53.400;7.608;2023-05-06T08:24:35;101814.41;;;13.54;90.78
73267;BME280;61495;53.400;7.608;2023-05-06T08:27:01;101815.25;;;13.55;91.57
73267;BME280;61495;53.400;7.608;2023-05-06T08:29:27;101818.59;;;13.63;91.37
73267;BME280;61495;53.400;7.608;2023-05-06T08:31:52;101826.66;;;13.50;90.76
73267;BME280;61495;53.400;7.608;2023-05-06T08:34:18;101822.28;;;13.49;91.28
73267;BME280;61495;53.400;7.608;2023-05-06T08:36:45;101809.00;;;13.41;91.25
73267;BME280;61495;53.400;7.608;2023-05-06T08:39:11;101816.47;;;13.39;91.63
73267;BME280;61495;53.400;7.608;2023-05-06T08:41:38;101816.06;;;13.42;91.69
73267;BME280;61495;53.400;7.608;2023-05-06T08:44:06;101802.75;;;13.34;91.79
73267;BME280;61495;53.400;7.608;2023-05-06T08:46:32;101808.25;;;13.67;94.48
73267;BME280;61495;53.400;7.608;2023-05-06T08:48:58;101806.53;;;13.46;91.69
73267;BME280;61495;53.400;7.608;2023-05-06T08:51:27;101809.84;;;13.48;91.20
73267;BME280;61495;53.400;7.608;2023-05-06T08:53:53;101807.38;;;13.47;92.04
73267;BME280;61495;53.400;7.608;2023-05-06T08:56:23;101794.75;;;13.47;92.12
73267;BME280;61495;53.400;7.608;2023-05-06T08:58:50;101803.00;;;13.39;92.11
73267;BME280;61495;53.400;7.608;2023-05-06T09:01:16;101811.72;;;13.48;94.67
73267;BME280;61495;53.400;7.608;2023-05-06T09:03:42;101805.78;;;13.78;94.23
73267;BME280;61495;53.400;7.608;2023-05-06T09:06:08;101812.19;;;13.64;91.65
73267;BME280;61495;53.400;7.608;2023-05-06T09:08:34;101813.22;;;13.63;92.02
73267;BME280;61495;53.400;7.608;2023-05-06T09:11:00;101811.97;;;13.59;92.48
73267;BME280;61495;53.400;7.608;2023-05-06T09:13:26;101813.03;;;13.65;91.52
73267;BME280;61495;53.400;7.608;2023-05-06T09:15:53;101809.50;;;13.64;91.36
73267;BME280;61495;53.400;7.608;2023-05-06T09:18:18;101810.75;;;13.68;91.22
73267;BME280;61495;53.400;7.608;2023-05-06T09:20:45;101811.19;;;13.78;90.83
73267;BME280;61495;53.400;7.608;2023-05-06T09:23:14;101812.84;;;13.73;90.77
73267;BME280;61495;53.400;7.608;2023-05-06T09:25:40;101805.53;;;13.60;91.59
73267;BME280;61495;53.400;7.608;2023-05-06T09:28:10;101811.50;;;13.49;92.86
73267;BME280;61495;53.400;7.608;2023-05-06T09:30:43;101799.72;;;13.50;92.23
73267;BME280;61495;53.400;7.608;2023-05-06T09:33:10;101797.88;;;13.64;91.97
73267;BME280;61495;53.400;7.608;2023-05-06T09:35:45;101799.59;;;13.91;90.55
73267;BME280;61495;53.400;7.608;2023-05-06T09:38:10;101812.25;;;13.77;91.02
73267;BME280;61495;53.400;7.608;2023-05-06T09:40:37;101804.97;;;13.71;91.47
73267;BME280;61495;53.400;7.608;2023-05-06T09:43:03;101806.38;;;13.61;92.00
73267;BME280;61495;53.400;7.608;2023-05-06T09:45:30;101819.88;;;13.74;91.50
73267;BME280;61495;53.400;7.608;2023-05-06T09:47:56;101813.25;;;13.76;91.83
73267;BME280;61495;53.400;7.608;2023-05-06T09:50:23;101820.13;;;13.85;90.94
73267;BME280;61495;53.400;7.608;2023-05-06T09:52:49;101812.47;;;13.89;90.85
73267;BME280;61495;53.400;7.608;2023-05-06T09:55:18;101816.84;;;14.10;91.81
73267;BME280;61495;53.400;7.608;2023-05-06T09:57:43;101826.16;;;14.01;90.47
73267;BME280;61495;53.400;7.608;2023-05-06T10:00:10;101819.31;;;14.11;91.60
73267;BME280;61495;53.400;7.608;2023-05-06T10:02:42;101823.88;;;14.11;90.14
73267;BME280;61495;53.400;7.608;2023-05-06T10:05:09;101822.88;;;14.25;92.13
73267;BME280;61495;53.400;7.608;2023-05-06T10:07:36;101823.25;;;14.28;91.12
73267;BME280;61495;53.400;7.608;2023-05-06T10:10:03;101828.25;;;14.18;89.96
73267;BME280;61495;53.400;7.608;2023-05-06T10:12:31;101819.53;;;14.23;89.27
73267;BME280;61495;53.400;7.608;2023-05-06T10:14:56;101827.03;;;14.40;90.19
73267;BME280;61495;53.400;7.608;2023-05-06T10:17:23;101824.16;;;14.49;91.08
73267;BME280;61495;53.400;7.608;2023-05-06T10:19:51;101827.88;;;14.41;90.05
73267;BME280;61495;53.400;7.608;2023-05-06T10:27:46;101817.50;;;14.51;90.54
73267;BME280;61495;53.400;7.608;2023-05-06T10:30:14;101822.91;;;14.51;89.12
73267;BME280;61495;53.400;7.608;2023-05-06T10:32:42;101818.72;;;14.62;89.25
73267;BME280;61495;53.400;7.608;2023-05-06T10:35:14;101817.91;;;14.61;89.64
73267;BME280;61495;53.400;7.608;2023-05-06T10:37:45;101815.84;;;14.63;88.53
73267;BME280;61495;53.400;7.608;2023-05-06T10:40:12;101806.25;;;14.67;89.35
73267;BME280;61495;53.400;7.608;2023-05-06T10:42:37;101814.53;;;14.85;88.70
73267;BME280;61495;53.400;7.608;2023-05-06T10:45:04;101819.94;;;14.92;88.58
73267;BME280;61495;53.400;7.608;2023-05-06T10:50:22;101815.94;;;15.08;88.02
73267;BME280;61495;53.400;7.608;2023-05-06T10:52:51;101828.19;;;15.03;87.26
73267;BME280;61495;53.400;7.608;2023-05-06T10:55:33;101817.78;;;15.20;87.62
73267;BME280;61495;53.400;7.608;2023-05-06T10:58:02;101812.38;;;15.20;86.75
73267;BME280;61495;53.400;7.608;2023-05-06T11:00:30;101813.59;;;15.24;86.53
73267;BME280;61495;53.400;7.608;2023-05-06T11:02:56;101823.09;;;15.40;85.87
73267;BME280;61495;53.400;7.608;2023-05-06T11:05:22;101824.13;;;15.52;86.21
73267;BME280;61495;53.400;7.608;2023-05-06T11:07:50;101816.00;;;15.52;84.95
73267;BME280;61495;53.400;7.608;2023-05-06T11:10:37;101819.97;;;15.87;87.81
73267;BME280;61495;53.400;7.608;2023-05-06T11:13:25;101819.56;;;16.40;89.13
73267;BME280;61495;53.400;7.608;2023-05-06T11:15:53;101816.56;;;16.54;85.97
73267;BME280;61495;53.400;7.608;2023-05-06T11:26:18;101815.72;;;16.54;82.71
73267;BME280;61495;53.400;7.608;2023-05-06T11:28:45;101818.25;;;16.49;80.73
73267;BME280;61495;53.400;7.608;2023-05-06T11:31:12;101823.53;;;16.69;81.36
73267;BME280;61495;53.400;7.608;2023-05-06T11:33:49;101814.28;;;16.76;80.65
73267;BME280;61495;53.400;7.608;2023-05-06T11:36:18;101815.34;;;16.93;79.33
73267;BME280;61495;53.400;7.608;2023-05-06T11:38:48;101819.19;;;17.04;79.35
73267;BME280;61495;53.400;7.608;2023-05-06T11:41:14;101808.13;;;17.05;79.30
73267;BME280;61495;53.400;7.608;2023-05-06T11:43:45;101810.19;;;17.10;78.66
73267;BME280;61495;53.400;7.608;2023-05-06T11:46:10;101814.06;;;17.32;79.18
73267;BME280;61495;53.400;7.608;2023-05-06T11:48:36;101809.34;;;17.28;78.61
73267;BME280;61495;53.400;7.608;2023-05-06T11:51:01;101806.63;;;17.28;77.98
73267;BME280;61495;53.400;7.608;2023-05-06T11:53:28;101802.22;;;17.45;77.31
73267;BME280;61495;53.400;7.608;2023-05-06T11:55:54;101805.53;;;17.47;77.11
73267;BME280;61495;53.400;7.608;2023-05-06T11:58:27;101794.84;;;17.52;77.23
73267;BME280;61495;53.400;7.608;2023-05-06T12:00:57;101801.06;;;17.52;76.77
73267;BME280;61495;53.400;7.608;2023-05-06T12:03:24;101819.00;;;17.53;75.76
73267;BME280;61495;53.400;7.608;2023-05-06T12:05:50;101808.25;;;17.65;76.15
73267;BME280;61495;53.400;7.608;2023-05-06T12:08:20;101800.44;;;17.57;75.46
73267;BME280;61495;53.400;7.608;2023-05-06T12:10:51;101798.91;;;17.61;75.06
73267;BME280;61495;53.400;7.608;2023-05-06T12:13:17;101807.56;;;17.69;76.36
73267;BME280;61495;53.400;7.608;2023-05-06T12:15:44;101799.13;;;17.89;77.59
73267;BME280;61495;53.400;7.608;2023-05-06T12:18:10;101805.38;;;17.90;75.27
73267;BME280;61495;53.400;7.608;2023-05-06T12:20:37;101799.72;;;17.91;74.87
73267;BME280;61495;53.400;7.608;2023-05-06T12:23:13;101796.59;;;18.17;74.44
73267;BME280;61495;53.400;7.608;2023-05-06T12:25:40;101800.97;;;18.18;73.81
73267;BME280;61495;53.400;7.608;2023-05-06T12:28:16;101791.50;;;18.09;72.47
73267;BME280;61495;53.400;7.608;2023-05-06T12:30:41;101794.34;;;18.14;73.09
73267;BME280;61495;53.400;7.608;2023-05-06T12:33:08;101791.53;;;18.32;72.73
73267;BME280;61495;53.400;7.608;2023-05-06T12:35:39;101794.44;;;18.61;77.73
73267;BME280;61495;53.400;7.608;2023-05-06T12:38:16;101796.44;;;18.54;71.60
73267;BME280;61495;53.400;7.608;2023-05-06T12:40:51;101805.41;;;18.66;72.29
73267;BME280;61495;53.400;7.608;2023-05-06T12:43:17;101799.28;;;18.59;71.94
73267;BME280;61495;53.400;7.608;2023-05-06T12:46:01;101794.78;;;18.53;70.93
73267;BME280;61495;53.400;7.608;2023-05-06T12:48:26;101802.41;;;18.44;70.79
73267;BME280;61495;53.400;7.608;2023-05-06T12:50:52;101799.03;;;18.49;71.67
73267;BME280;61495;53.400;7.608;2023-05-06T12:53:33;101789.44;;;18.46;71.71
73267;BME280;61495;53.400;7.608;2023-05-06T12:55:59;101789.00;;;18.61;71.51
73267;BME280;61495;53.400;7.608;2023-05-06T12:58:25;101781.53;;;18.68;72.00
73267;BME280;61495;53.400;7.608;2023-05-06T13:00:50;101792.53;;;18.73;71.51
73267;BME280;61495;53.400;7.608;2023-05-06T13:03:16;101789.34;;;18.76;70.06
73267;BME280;61495;53.400;7.608;2023-05-06T13:05:43;101790.00;;;18.95;70.35
73267;BME280;61495;53.400;7.608;2023-05-06T13:08:10;101797.84;;;18.91;68.94
73267;BME280;61495;53.400;7.608;2023-05-06T13:10:36;101803.00;;;19.04;68.97